Time;durP1;ratioP1;P1;durP2;ratioP2;P2;SDS_P1;SDS_P2;PMS_P1;PMS_P2;Temp;Humidity;BMP_temperature;BMP_pressure;BME280_temperature;BME280_humidity;BME280_pressure;Samples;Min_cycle;Max_cycle;Signal;HPM_P1;HPM_P2
2022/12/19 00:00:46;;;;;;;19.83;6.25;;;10.70;99.90;;;9.72;100.00;101193.41;4167379;28;20108;-73
2022/12/19 00:02:47;;;;;;;24.10;6.80;;;10.70;99.90;;;9.73;100.00;101195.91;4167494;28;20402;-73
2022/12/19 00:04:48;;;;;;;25.65;7.18;;;10.70;99.90;;;9.69;100.00;101194.50;4168525;28;20056;-72
2022/12/19 00:06:49;;;;;;;23.38;6.45;;;10.60;99.90;;;9.67;100.00;101193.84;4168670;28;20025;-73
2022/12/19 00:08:52;;;;;;;19.30;5.18;;;10.60;99.90;;;9.68;100.00;101186.75;4167249;28;20033;-72
2022/12/19 00:10:56;;;;;;;21.08;6.45;;;10.60;99.90;;;9.69;100.00;101189.25;4150985;28;20030;-72
2022/12/19 00:12:57;;;;;;;22.17;5.80;;;10.60;99.90;;;9.67;100.00;101195.63;4169166;28;20402;-72
2022/12/19 00:14:58;;;;;;;29.90;6.15;;;10.60;99.90;;;9.67;100.00;101203.53;4171570;28;20091;-72
2022/12/19 00:16:59;;;;;;;22.20;6.03;;;10.60;99.90;;;9.61;100.00;101202.28;4171387;28;20041;-72
2022/12/19 00:19:01;;;;;;;21.10;5.97;;;10.60;99.90;;;9.62;100.00;101203.94;4170537;28;20033;-73
2022/12/19 00:21:04;;;;;;;18.42;6.15;;;10.50;99.90;;;9.59;100.00;101206.03;4170718;28;20100;-73
2022/12/19 00:23:06;;;;;;;20.55;5.57;;;10.50;99.90;;;9.57;100.00;101198.25;4170538;28;20013;-72
2022/12/19 00:25:07;;;;;;;21.95;5.90;;;10.50;99.90;;;9.57;100.00;101206.16;4171872;28;20021;-72
2022/12/19 00:27:08;;;;;;;24.55;6.10;;;10.50;99.90;;;9.57;100.00;101206.16;4171859;28;20030;-73
2022/12/19 00:29:09;;;;;;;18.92;4.82;;;10.50;99.90;;;9.56;100.00;101201.03;4171594;28;20029;-73
2022/12/19 00:31:11;;;;;;;29.02;5.80;;;10.50;99.90;;;9.52;100.00;101195.22;4171817;28;20163;-73
2022/12/19 00:33:12;;;;;;;23.50;5.47;;;10.50;99.90;;;9.51;100.00;101198.81;4170446;28;20108;-72
2022/12/19 00:35:13;;;;;;;24.73;6.35;;;10.50;99.90;;;9.59;100.00;101195.50;4170431;28;20425;-73
2022/12/19 00:37:14;;;;;;;22.48;5.55;;;10.50;99.90;;;9.61;100.00;101207.56;4171406;28;20030;-72
2022/12/19 00:39:15;;;;;;;16.85;5.38;;;10.50;99.90;;;9.57;100.00;101193.00;4171696;28;20021;-73
2022/12/19 00:41:20;;;;;;;17.60;6.50;;;10.50;99.90;;;9.61;100.00;101191.75;4170382;28;20073;-73
2022/12/19 00:43:21;;;;;;;16.15;5.93;;;10.50;99.90;;;9.59;100.00;101188.41;4170312;28;20022;-72
2022/12/19 00:45:22;;;;;;;24.55;5.28;;;10.50;99.90;;;9.61;100.00;101189.13;4171290;28;20092;-73
2022/12/19 00:47:23;;;;;;;23.92;6.53;;;10.50;99.90;;;9.63;100.00;101191.59;4171508;28;20545;-73
2022/12/19 00:49:24;;;;;;;20.30;5.18;;;10.60;99.90;;;9.60;100.00;101173.44;4171493;28;20481;-73
2022/12/19 00:51:30;;;;;;;23.98;6.25;;;10.60;99.90;;;9.67;100.00;101180.66;4171485;28;20089;-73
2022/12/19 00:53:32;;;;;;;23.23;7.05;;;10.60;99.90;;;9.74;100.00;101178.28;4169811;28;20034;-73
2022/12/19 00:55:32;;;;;;;26.90;6.00;;;10.60;99.90;;;9.74;100.00;101179.13;4171273;28;20511;-72
2022/12/19 00:57:33;;;;;;;24.00;5.93;;;10.70;99.90;;;9.75;100.00;101174.69;4170090;28;20092;-72
2022/12/19 00:59:34;;;;;;;23.80;5.65;;;10.70;99.90;;;9.83;100.00;101173.00;4171412;28;20416;-72
2022/12/19 01:01:39;;;;;;;27.08;5.70;;;10.70;99.90;;;9.81;100.00;101167.06;4171096;28;20024;-73
2022/12/19 01:03:40;;;;;;;23.50;5.47;;;10.70;99.90;;;9.86;100.00;101185.91;4170138;28;20025;-73
2022/12/19 01:05:41;;;;;;;32.47;6.07;;;10.70;99.90;;;9.92;100.00;101164.25;4171193;28;20018;-72
2022/12/19 01:07:42;;;;;;;16.35;6.20;;;10.80;99.90;;;9.92;100.00;101166.06;4170971;28;20029;-72
2022/12/19 01:09:43;;;;;;;19.65;5.60;;;10.80;99.90;;;9.94;100.00;101172.03;4171032;28;20021;-73
2022/12/19 01:14:04;;;;;;;22.75;5.63;;;10.80;99.90;;;9.88;100.00;101169.97;4170953;28;20033;-72
2022/12/19 01:16:12;;;;;;;25.65;6.28;;;10.80;99.90;;;9.92;100.00;101172.16;4168948;28;20041;-73
2022/12/19 01:18:13;;;;;;;21.27;5.93;;;10.80;99.90;;;9.88;100.00;101149.72;4168887;28;20035;-72
2022/12/19 01:20:18;;;;;;;17.13;6.45;;;10.80;99.90;;;9.86;100.00;101148.16;4170125;28;20026;-73
2022/12/19 01:22:18;;;;;;;25.50;8.70;;;10.80;99.90;;;9.84;100.00;101158.03;4170039;28;20025;-73
2022/12/19 01:24:19;;;;;;;16.40;6.85;;;10.80;99.90;;;9.85;100.00;101143.91;4169343;28;20486;-73
2022/12/19 01:26:20;;;;;;;21.77;7.65;;;10.80;99.90;;;9.81;100.00;101159.16;4170084;28;20104;-72
2022/12/19 01:28:22;;;;;;;14.63;7.47;;;10.80;99.90;;;9.79;100.00;101158.47;4152208;28;20052;-72
2022/12/19 01:30:23;;;;;;;20.60;7.15;;;10.70;99.90;;;9.76;100.00;101150.84;4168714;28;20524;-73
2022/12/19 01:32:24;;;;;;;24.58;7.95;;;10.80;99.90;;;9.82;100.00;101160.81;4169710;28;20038;-73
2022/12/19 01:34:26;;;;;;;28.27;7.38;;;10.70;99.90;;;9.81;100.00;101164.41;4170001;28;20096;-72
2022/12/19 01:36:28;;;;;;;20.55;6.68;;;10.70;99.90;;;9.85;100.00;101170.25;4169711;28;20108;-72
2022/12/19 01:38:28;;;;;;;20.02;5.65;;;10.70;99.90;;;9.81;100.00;101180.22;4168418;28;20025;-72
2022/12/19 01:40:30;;;;;;;25.70;7.43;;;10.70;99.90;;;9.84;100.00;101195.75;4168761;28;20072;-72
2022/12/19 01:42:36;;;;;;;22.23;5.65;;;10.80;99.90;;;9.87;100.00;101198.09;4168576;28;20025;-72
2022/12/19 01:44:37;;;;;;;23.88;7.20;;;10.70;99.90;;;9.87;100.00;101200.75;4168502;28;20040;-72
2022/12/19 01:46:46;;;;;;;21.45;6.35;;;10.70;99.90;;;9.85;100.00;101202.69;4169320;28;20021;-72
2022/12/19 01:48:47;;;;;;;21.20;6.80;;;10.80;99.90;;;9.88;100.00;101202.41;4168435;28;20033;-72
2022/12/19 01:51:15;;;;;;;25.85;7.60;;;10.80;99.90;;;9.83;100.00;101195.88;4184786;28;20366;-72
2022/12/19 01:53:16;;;;;;;21.13;6.00;;;10.80;99.90;;;9.85;100.00;101184.25;4183327;28;20585;-72
2022/12/19 01:55:18;;;;;;;26.70;7.20;;;10.70;99.90;;;9.79;100.00;101189.25;4168570;28;20076;-72
2022/12/19 01:57:19;;;;;;;20.25;6.75;;;10.70;99.90;;;9.87;100.00;101192.84;4168335;28;20029;-72
2022/12/19 01:59:36;;;;;;;18.45;5.47;;;10.70;99.90;;;9.82;100.00;101184.53;4168474;28;20030;-72
2022/12/19 02:01:40;;;;;;;15.25;5.82;;;10.70;99.90;;;9.79;100.00;101179.53;4169380;28;20057;-73
2022/12/19 02:03:41;;;;;;;21.85;6.78;;;10.70;99.90;;;9.78;100.00;101179.66;4169492;28;20566;-72
2022/12/19 02:05:44;;;;;;;24.55;5.78;;;10.70;99.90;;;9.76;100.00;101185.09;4168109;28;20042;-73
2022/12/19 02:07:45;;;;;;;28.13;6.03;;;10.70;99.90;;;9.76;100.00;101202.69;4168043;28;20025;-72
2022/12/19 02:09:51;;;;;;;17.88;6.55;;;10.70;99.90;;;9.72;100.00;101201.31;4168222;28;20141;-72
2022/12/19 02:11:52;;;;;;;21.65;5.75;;;10.70;99.90;;;9.76;100.00;101214.06;4167799;28;20435;-72
2022/12/19 02:13:53;;;;;;;16.90;5.97;;;10.70;99.90;;;9.71;100.00;101202.25;4168128;28;20512;-73
2022/12/19 02:16:41;;;;;;;22.10;7.68;;;10.70;99.90;;;9.76;100.00;101193.00;4121601;28;1344808;-72
2022/12/19 02:19:04;;;;;;;18.30;5.97;;;10.60;99.90;;;9.77;100.00;101189.38;4163385;28;20037;-72
2022/12/19 02:21:24;;;;;;;22.85;6.75;;;10.70;99.90;;;9.76;100.00;101190.38;4168953;28;20425;-73
2022/12/19 02:23:50;;;;;;;25.85;7.57;;;10.70;99.90;;;9.74;100.00;101184.38;4169879;28;20031;-73
2022/12/19 02:26:32;;;;;;;19.63;5.32;;;10.70;99.90;;;9.78;100.00;101175.25;4139256;28;20049;-72
2022/12/19 02:29:25;;;;;;;19.95;7.72;;;10.70;99.90;;;9.71;100.00;101171.50;4168994;28;20025;-73
2022/12/19 02:32:01;;;;;;;23.98;7.30;;;10.60;99.90;;;9.74;100.00;101170.38;4169828;28;20041;-73
2022/12/19 02:34:24;;;;;;;31.00;7.55;;;10.60;99.90;;;9.71;100.00;101168.84;4119411;28;20439;-72
2022/12/19 02:36:38;;;;;;;23.08;5.93;;;10.60;99.90;;;9.64;100.00;101157.22;4151638;28;20091;-73
2022/12/19 02:39:06;;;;;;;23.45;5.72;;;10.60;99.90;;;9.65;100.00;101158.03;4168481;28;20025;-73
2022/12/19 02:41:28;;;;;;;13.82;5.47;;;10.60;99.90;;;9.64;100.00;101159.88;4168631;28;20501;-73
2022/12/19 02:43:33;;;;;;;23.15;5.78;;;10.60;99.90;;;9.63;100.00;101166.09;4152231;28;20029;-72
2022/12/19 02:45:38;;;;;;;16.85;5.40;;;10.50;99.90;;;9.68;100.00;101163.88;4164060;28;20030;-72
2022/12/19 02:47:40;;;;;;;15.45;5.40;;;10.50;99.90;;;9.65;100.00;101161.50;4168555;28;20032;-72
2022/12/19 02:49:41;;;;;;;12.52;5.05;;;10.60;99.90;;;9.62;100.00;101161.78;4168503;28;20382;-73
2022/12/19 02:51:42;;;;;;;16.55;5.97;;;10.50;99.90;;;9.62;100.00;101164.41;4168106;28;20060;-73
2022/12/19 02:53:43;;;;;;;22.08;5.47;;;10.50;99.90;;;9.60;100.00;101152.38;4165085;28;20030;-72
2022/12/19 02:56:40;;;;;;;23.95;5.90;;;10.50;99.90;;;9.62;100.00;101177.59;4166118;28;20545;-73
2022/12/19 02:59:03;;;;;;;26.75;5.40;;;10.50;99.90;;;9.64;100.00;101170.41;4149895;28;20076;-73
2022/12/19 03:01:39;;;;;;;19.27;6.57;;;10.50;99.90;;;9.63;100.00;101178.44;4169417;28;20017;-73
2022/12/19 03:04:23;;;;;;;21.13;5.70;;;10.60;99.90;;;9.65;100.00;101173.84;4156011;28;20042;-72
2022/12/19 03:06:30;;;;;;;24.67;5.82;;;10.60;99.90;;;9.66;100.00;101184.25;4167660;28;20104;-73
2022/12/19 03:08:57;;;;;;;19.67;6.18;;;10.50;99.90;;;9.65;100.00;101184.38;4169129;28;20040;-73
2022/12/19 03:11:02;;;;;;;14.30;5.38;;;10.50;99.90;;;9.65;100.00;101174.69;4169156;28;20508;-72
2022/12/19 03:13:20;;;;;;;15.05;4.88;;;10.60;99.90;;;9.64;100.00;101186.22;4169331;28;20052;-73
2022/12/19 03:15:22;;;;;;;14.70;4.72;;;10.50;99.90;;;9.57;100.00;101176.34;4168835;28;20108;-73
2022/12/19 03:17:24;;;;;;;16.05;5.05;;;10.50;99.90;;;9.59;100.00;101163.91;4167878;28;20104;-72
2022/12/19 03:19:25;;;;;;;25.30;5.40;;;10.50;99.90;;;9.65;100.00;101171.22;4167966;28;20030;-72
2022/12/19 03:21:35;;;;;;;21.15;6.57;;;10.60;99.90;;;9.66;100.00;101164.97;4167886;28;20156;-72
2022/12/19 03:23:36;;;;;;;18.00;5.15;;;10.50;99.90;;;9.68;100.00;101163.03;4167716;28;20032;-72
2022/12/19 03:25:39;;;;;;;22.80;5.30;;;10.50;99.90;;;9.65;100.00;101158.03;4167695;28;20021;-73
2022/12/19 03:27:40;;;;;;;17.80;5.38;;;10.50;99.90;;;9.64;100.00;101149.34;4167907;28;20071;-72
2022/12/19 03:30:21;;;;;;;14.35;4.88;;;10.50;99.90;;;9.63;100.00;101145.03;4168037;28;20025;-72
2022/12/19 03:32:25;;;;;;;14.43;4.95;;;10.50;99.90;;;9.56;100.00;101140.47;4142849;28;20121;-72
2022/12/19 03:34:31;;;;;;;17.88;5.57;;;10.50;99.90;;;9.54;100.00;101127.44;4167954;28;20477;-73
2022/12/19 03:36:50;;;;;;;25.85;5.63;;;10.50;99.90;;;9.55;100.00;101129.09;4167807;28;20111;-73
2022/12/19 03:38:53;;;;;;;17.65;4.97;;;10.50;99.90;;;9.53;100.00;101135.47;4167640;28;20053;-73
2022/12/19 03:40:55;;;;;;;13.45;5.50;;;10.50;99.90;;;9.57;100.00;101137.69;4167838;28;20053;-73
2022/12/19 03:43:07;;;;;;;14.57;5.47;;;10.50;99.90;;;9.52;100.00;101137.28;4167688;28;20022;-73
2022/12/19 03:45:10;;;;;;;18.17;5.78;;;10.50;99.90;;;9.51;100.00;101140.88;4151486;28;20021;-72
2022/12/19 03:47:23;;;;;;;14.55;5.40;;;10.50;99.90;;;9.52;100.00;101136.44;4167420;28;20033;-73
2022/12/19 03:49:24;;;;;;;17.77;4.57;;;10.40;99.90;;;9.49;100.00;101132.28;4167459;28;20163;-73
2022/12/19 03:51:27;;;;;;;17.52;5.18;;;10.40;99.90;;;9.51;100.00;101132.13;4167646;28;20061;-73
2022/12/19 03:53:59;;;;;;;18.48;5.55;;;10.40;99.90;;;9.49;100.00;101124.41;4168393;28;20036;-73
2022/12/19 03:56:16;;;;;;;12.32;4.85;;;10.40;99.90;;;9.48;100.00;101135.06;4153400;28;20068;-73
2022/12/19 03:58:30;;;;;;;15.75;4.90;;;10.40;99.90;;;9.49;100.00;101137.56;4168743;28;20068;-73
2022/12/19 04:00:36;;;;;;;17.80;6.32;;;10.40;99.90;;;9.48;100.00;101135.06;4151485;28;20030;-73
2022/12/19 04:02:40;;;;;;;16.73;5.38;;;10.40;99.90;;;9.43;100.00;101133.69;4161725;28;20079;-73
2022/12/19 04:04:59;;;;;;;15.45;5.07;;;10.40;99.90;;;9.45;100.00;101131.72;4167348;28;20155;-72
2022/12/19 04:07:02;;;;;;;13.05;5.40;;;10.40;99.90;;;9.47;100.00;101123.69;4167072;28;20025;-73
2022/12/19 04:09:04;;;;;;;18.38;5.13;;;10.40;99.90;;;9.43;100.00;101117.06;4167634;28;20025;-72
2022/12/19 04:11:12;;;;;;;18.40;5.38;;;10.40;99.90;;;9.43;100.00;101123.16;4167581;28;20025;-73
2022/12/19 04:13:21;;;;;;;17.05;5.78;;;10.40;99.90;;;9.43;100.00;101122.31;4167600;28;20029;-73
2022/12/19 04:15:47;;;;;;;14.70;5.18;;;10.40;99.90;;;9.44;100.00;101126.59;4167110;28;20072;-72
2022/12/19 04:17:57;;;;;;;13.82;5.15;;;10.40;99.90;;;9.41;100.00;101121.59;4153665;28;20172;-72
2022/12/19 04:20:04;;;;;;;14.02;4.72;;;10.40;99.90;;;9.38;100.00;101122.72;4151303;28;20531;-72
2022/12/19 04:22:13;;;;;;;17.58;5.35;;;10.30;99.90;;;9.38;100.00;101124.50;4168422;28;20021;-72
2022/12/19 04:24:26;;;;;;;15.25;5.22;;;10.30;99.90;;;9.38;100.00;101121.88;4168373;28;20026;-72
2022/12/19 04:26:29;;;;;;;16.42;4.82;;;10.30;99.90;;;9.38;100.00;101124.50;4167376;28;20042;-72
2022/12/19 04:29:00;;;;;;;19.20;4.80;;;10.30;99.90;;;9.34;100.00;101139.78;4150960;28;20525;-72
2022/12/19 04:31:02;;;;;;;14.20;4.53;;;10.30;99.90;;;9.37;100.00;101136.88;4165562;28;20044;-72
2022/12/19 04:33:03;;;;;;;17.20;6.35;;;10.30;99.90;;;9.43;100.00;101151.28;4167192;28;20095;-72
2022/12/19 04:35:05;;;;;;;18.02;5.72;;;10.30;99.90;;;9.38;100.00;101149.03;4168340;28;20083;-72
2022/12/19 04:37:06;;;;;;;10.98;4.68;;;10.30;99.90;;;9.36;100.00;101155.44;4166820;28;20048;-72
2022/12/19 04:39:07;;;;;;;12.70;5.35;;;10.30;99.90;;;9.36;100.00;101158.88;4150877;28;20493;-73
2022/12/19 04:41:08;;;;;;;16.17;5.18;;;10.30;99.90;;;9.34;100.00;101160.84;4159666;28;20033;-73
2022/12/19 04:43:09;;;;;;;15.00;5.05;;;10.30;99.90;;;9.31;100.00;101145.31;4168314;28;20021;-72
2022/12/19 04:45:10;;;;;;;14.20;5.13;;;10.30;99.90;;;9.30;100.00;101156.81;4168176;28;20109;-72
2022/12/19 04:47:11;;;;;;;17.02;4.75;;;10.30;99.90;;;9.36;100.00;101150.16;4167205;28;20029;-73
2022/12/19 04:49:12;;;;;;;13.95;4.97;;;10.30;99.90;;;9.33;100.00;101145.16;4168344;28;20038;-72
2022/12/19 04:51:14;;;;;;;10.02;5.40;;;10.30;99.90;;;9.32;100.00;101135.59;4168282;28;20397;-72
2022/12/19 04:53:15;;;;;;;16.58;5.05;;;10.20;99.90;;;9.27;100.00;101133.41;4166728;28;20127;-73
2022/12/19 04:55:16;;;;;;;20.05;5.15;;;10.20;99.90;;;9.24;100.00;101127.56;4168405;28;20397;-73
2022/12/19 04:57:16;;;;;;;11.90;5.15;;;10.20;99.90;;;9.24;100.00;101132.84;4167085;28;20044;-73
2022/12/19 04:59:18;;;;;;;11.85;4.80;;;10.20;99.90;;;9.23;100.00;101123.25;4169071;28;20018;-73
2022/12/19 05:01:18;;;;;;;10.10;4.57;;;10.20;99.90;;;9.21;100.00;101123.41;4170937;28;20021;-73
2022/12/19 05:03:19;;;;;;;13.15;5.78;;;10.10;99.90;;;9.19;100.00;101124.53;4171250;28;20079;-72
2022/12/19 05:05:20;;;;;;;12.82;5.32;;;10.10;99.90;;;9.16;100.00;101119.53;4171150;28;20052;-72
2022/12/19 05:07:21;;;;;;;15.75;4.65;;;10.10;99.90;;;9.22;100.00;101126.88;4169752;28;20079;-72
2022/12/19 05:09:22;;;;;;;14.02;5.35;;;10.10;99.90;;;9.16;100.00;101122.16;4169919;28;20029;-73
2022/12/19 05:11:23;;;;;;;21.85;4.93;;;10.10;99.90;;;9.16;100.00;101127.44;4153572;28;20026;-73
2022/12/19 05:13:24;;;;;;;12.32;5.03;;;10.10;99.90;;;9.14;100.00;101121.47;4169973;28;20029;-72
2022/12/19 05:15:25;;;;;;;13.70;4.90;;;10.10;99.90;;;9.09;100.00;101113.97;4169531;28;20088;-72
2022/12/19 05:17:26;;;;;;;13.95;5.53;;;10.10;99.90;;;9.13;100.00;101131.19;4169763;28;20033;-72
2022/12/19 05:19:27;;;;;;;11.38;4.60;;;10.10;99.90;;;9.10;100.00;101117.44;4169588;28;20053;-72
2022/12/19 05:21:28;;;;;;;12.75;5.38;;;10.10;99.90;;;9.11;100.00;101116.50;4159735;28;20029;-72
2022/12/19 05:23:29;;;;;;;18.35;5.82;;;10.10;99.90;;;9.11;100.00;101125.19;4170784;28;20060;-72
2022/12/19 05:25:30;;;;;;;10.48;5.13;;;10.10;99.90;;;9.10;100.00;101118.28;4170888;28;20029;-72
2022/12/19 05:27:31;;;;;;;18.77;5.45;;;10.10;99.90;;;9.12;100.00;101112.88;4169495;28;20025;-72
2022/12/19 05:29:33;;;;;;;11.68;5.85;;;10.10;99.90;;;9.12;100.00;101107.63;4169734;28;20034;-72
2022/12/19 05:31:34;;;;;;;13.73;5.50;;;10.00;99.90;;;9.11;100.00;101103.34;4170824;28;20401;-72
2022/12/19 05:33:36;;;;;;;14.48;4.75;;;10.00;99.90;;;9.11;100.00;101103.34;4169555;28;20112;-72
2022/12/19 05:35:38;;;;;;;14.85;6.20;;;10.10;99.90;;;9.09;100.00;101110.53;4169393;28;20036;-72
2022/12/19 05:37:38;;;;;;;10.60;5.68;;;10.00;99.90;;;9.08;100.00;101116.78;4170560;28;20052;-72
2022/12/19 05:39:39;;;;;;;12.77;5.65;;;10.00;99.90;;;9.11;100.00;101124.38;4170663;28;20030;-72
2022/12/19 05:41:40;;;;;;;12.95;5.18;;;10.00;99.90;;;9.06;100.00;101124.78;4170767;28;20025;-72
2022/12/19 05:43:44;;;;;;;12.35;5.03;;;10.00;99.90;;;9.04;100.00;101118.00;4169336;28;20022;-72
2022/12/19 05:45:45;;;;;;;17.70;5.78;;;10.00;99.90;;;9.06;100.00;101121.31;4169352;28;20029;-72
2022/12/19 05:47:46;;;;;;;15.85;6.53;;;10.00;99.90;;;9.10;100.00;101136.72;4170585;28;20385;-72
2022/12/19 05:49:47;;;;;;;14.88;5.05;;;10.00;99.90;;;9.17;100.00;101131.75;4170555;28;20606;-72
2022/12/19 05:51:48;;;;;;;15.98;5.88;;;10.00;99.90;;;9.10;100.00;101136.72;4170457;28;20021;-72
2022/12/19 05:53:49;;;;;;;15.93;5.25;;;10.10;99.90;;;9.11;100.00;101154.16;4163892;28;20034;-72
2022/12/19 05:55:50;;;;;;;17.92;5.97;;;10.00;99.90;;;9.08;100.00;101153.59;4164688;28;20037;-72
2022/12/19 05:57:51;;;;;;;19.15;6.70;;;10.00;99.90;;;9.10;100.00;101147.25;4170148;28;20033;-72
2022/12/19 05:59:52;;;;;;;14.15;5.05;;;10.00;99.90;;;9.11;100.00;101145.44;4169915;28;20064;-72
2022/12/19 06:01:53;;;;;;;12.57;4.97;;;10.00;99.90;;;9.11;100.00;101148.06;4170617;28;20076;-72
2022/12/19 06:03:54;;;;;;;10.52;5.43;;;10.00;99.90;;;9.06;100.00;101135.31;4169193;28;20053;-72
2022/12/19 06:05:55;;;;;;;10.93;5.15;;;10.10;99.90;;;9.04;100.00;101132.00;4169012;28;20033;-73
2022/12/19 06:07:56;;;;;;;16.98;6.70;;;10.00;99.90;;;9.06;100.00;101134.47;4169905;28;20052;-72
2022/12/19 06:09:57;;;;;;;11.13;5.15;;;10.00;99.90;;;9.06;100.00;101126.56;4167914;28;20029;-72
2022/12/19 06:11:58;;;;;;;17.65;5.35;;;10.00;99.90;;;9.07;100.00;101134.34;4170366;28;20017;-72
2022/12/19 06:13:59;;;;;;;16.08;4.95;;;10.00;99.90;;;9.04;100.00;101129.38;4170023;28;20029;-73
2022/12/19 06:16:11;;;;;;;11.93;5.72;;;10.00;99.90;;;9.06;100.00;101135.31;4168486;28;20041;-72
2022/12/19 06:18:12;;;;;;;11.18;4.78;;;10.00;99.90;;;9.04;100.00;101133.78;4169051;28;20030;-73
2022/12/19 06:20:13;;;;;;;11.55;4.90;;;10.00;99.90;;;9.03;100.00;101130.31;4168868;28;20025;-72
2022/12/19 06:22:14;;;;;;;15.27;5.15;;;10.00;99.90;;;9.02;100.00;101128.66;4169916;28;20400;-72
2022/12/19 06:24:15;;;;;;;19.10;4.90;;;10.00;99.90;;;9.03;100.00;101130.31;4169836;28;20064;-72
2022/12/19 06:26:19;;;;;;;13.05;4.97;;;9.90;99.90;;;9.01;100.00;101120.91;4169842;28;20080;-72
2022/12/19 06:28:20;;;;;;;13.75;4.78;;;10.00;99.90;;;9.02;100.00;101122.59;4170005;28;20029;-72
2022/12/19 06:30:21;;;;;;;11.45;5.55;;;10.00;99.90;;;9.04;100.00;101116.22;4168490;28;20044;-72
2022/12/19 06:32:22;;;;;;;19.30;5.55;;;10.00;99.90;;;9.04;100.00;101118.00;4168532;28;20022;-72
2022/12/19 06:34:23;;;;;;;16.77;5.75;;;10.00;99.90;;;9.10;100.00;101106.94;4169722;28;20083;-72
2022/12/19 06:36:29;;;;;;;13.23;5.90;;;10.00;99.90;;;9.10;100.00;101106.94;4169557;28;20022;-72
2022/12/19 06:38:31;;;;;;;17.05;6.25;;;10.00;99.90;;;9.06;100.00;101109.00;4168454;28;20033;-72
2022/12/19 06:42:52;;;;;;;12.02;5.07;;;10.00;99.90;;;9.13;100.00;101104.03;4169615;28;20523;-71
2022/12/19 06:44:54;;;;;;;10.38;4.55;;;10.00;99.90;;;9.15;100.00;101108.16;4169562;28;20021;-71
2022/12/19 06:46:55;;;;;;;16.98;6.03;;;10.00;99.90;;;9.16;100.00;101101.13;4169504;28;20044;-71
2022/12/19 06:48:56;;;;;;;16.25;5.78;;;10.00;99.90;;;9.13;100.00;101110.13;4168249;28;20025;-71
2022/12/19 06:50:57;;;;;;;15.85;5.60;;;10.00;99.90;;;9.14;100.00;101108.31;4168230;28;20117;-71
2022/12/19 06:52:58;;;;;;;15.18;5.78;;;10.10;99.90;;;9.22;100.00;101100.56;4168203;28;20022;-72
2022/12/19 06:54:59;;;;;;;18.35;5.85;;;10.10;99.90;;;9.16;100.00;101093.22;4157756;28;20029;-71
2022/12/19 06:57:00;;;;;;;17.17;6.10;;;10.10;99.90;;;9.16;100.00;101091.44;4169590;28;20021;-71
2022/12/19 06:59:01;;;;;;;19.67;5.55;;;10.10;99.90;;;9.18;100.00;101107.06;4169466;28;20030;-71
2022/12/19 07:01:02;;;;;;;8.52;4.95;;;10.10;99.90;;;9.17;100.00;101105.41;4168210;28;20101;-72
2022/12/19 07:03:08;;;;;;;23.80;7.53;;;10.10;99.90;;;9.19;100.00;101106.94;4169223;28;20440;-71
2022/12/19 07:05:11;;;;;;;20.40;5.72;;;10.10;99.90;;;9.22;100.00;101100.56;4168162;28;20020;-71
2022/12/19 07:07:12;;;;;;;18.85;6.20;;;10.10;99.90;;;9.20;100.00;101098.06;4167893;28;20034;-71
2022/12/19 07:09:13;;;;;;;18.30;5.82;;;10.10;99.90;;;9.21;100.00;101112.06;4169248;28;20091;-71
2022/12/19 07:11:14;;;;;;;16.27;4.75;;;10.10;99.90;;;9.22;100.00;101108.47;4168109;28;20437;-71
2022/12/19 07:13:15;;;;;;;18.17;5.50;;;10.20;99.90;;;9.27;100.00;101112.34;4169345;28;20026;-72
2022/12/19 07:15:16;;;;;;;20.92;5.75;;;10.20;99.90;;;9.29;100.00;101113.03;4168743;28;20068;-71
2022/12/19 07:17:18;;;;;;;11.93;5.70;;;10.20;99.90;;;9.36;100.00;101115.94;4167930;28;20398;-71
2022/12/19 07:19:21;;;;;;;18.52;7.30;;;10.20;99.90;;;9.31;100.00;101102.38;4167956;28;20089;-71
2022/12/19 07:21:21;;;;;;;18.17;5.50;;;10.20;99.90;;;9.33;100.00;101126.75;4167639;28;20029;-71
2022/12/19 07:23:23;;;;;;;19.77;5.43;;;10.20;99.90;;;9.32;100.00;101128.53;4168907;28;20025;-71
2022/12/19 07:25:24;;;;;;;21.05;5.35;;;10.20;99.90;;;9.39;100.00;101126.19;4167598;28;20028;-70
2022/12/19 07:27:27;;;;;;;14.60;5.88;;;10.30;99.90;;;9.41;100.00;101132.97;4168899;28;20052;-70
2022/12/19 07:29:27;;;;;;;19.73;6.82;;;10.30;99.90;;;9.42;100.00;101145.19;4168046;28;20424;-71
2022/12/19 07:31:28;;;;;;;22.15;5.88;;;10.30;99.90;;;9.42;100.00;101136.44;4168959;28;20044;-71
2022/12/19 07:33:29;;;;;;;20.15;5.82;;;10.30;99.90;;;9.47;100.00;101131.56;4167725;28;20037;-71
2022/12/19 07:35:30;;;;;;;18.52;5.75;;;10.40;99.90;;;9.52;100.00;101132.00;4161883;28;20091;-71
2022/12/19 07:37:31;;;;;;;15.77;5.53;;;10.40;99.90;;;9.47;100.00;101128.13;4168588;28;20022;-71
2022/12/19 07:39:32;;;;;;;19.65;5.95;;;10.40;99.90;;;9.47;100.00;101133.41;4168974;28;20049;-71
2022/12/19 07:41:37;;;;;;;19.02;5.90;;;10.40;99.90;;;9.47;100.00;101136.84;4168810;28;20040;-71
2022/12/19 07:43:37;;;;;;;17.45;6.10;;;10.40;99.90;;;9.49;100.00;101137.56;4168736;28;20029;-71
2022/12/19 07:45:38;;;;;;;20.42;6.43;;;10.40;99.90;;;9.51;100.00;101140.03;4168795;28;20021;-71
2022/12/19 07:47:39;;;;;;;18.00;6.72;;;10.40;99.90;;;9.51;100.00;101132.97;4167585;28;20029;-71
2022/12/19 07:49:40;;;;;;;20.55;6.60;;;10.40;99.90;;;9.50;100.00;101143.66;4168749;28;20056;-71
2022/12/19 07:51:41;;;;;;;15.90;6.05;;;10.40;99.90;;;9.51;100.00;101134.78;4167209;28;20025;-71
2022/12/19 07:53:42;;;;;;;17.88;5.28;;;10.40;99.90;;;9.57;100.00;101139.47;4163395;28;20029;-72
2022/12/19 07:55:43;;;;;;;24.75;6.18;;;10.40;99.90;;;9.59;100.00;101151.53;4190316;28;20093;-71
2022/12/19 07:57:44;;;;;;;16.70;6.38;;;10.50;99.90;;;9.59;100.00;101156.00;4162522;28;20083;-71
2022/12/19 07:59:45;;;;;;;25.38;6.93;;;10.50;99.90;;;9.59;100.00;101156.81;4167936;28;20115;-71
2022/12/19 08:01:46;;;;;;;17.27;6.10;;;10.50;99.90;;;9.55;100.00;101158.06;4167589;28;20089;-72
2022/12/19 08:03:47;;;;;;;19.45;6.85;;;10.50;99.90;;;9.59;100.00;101161.25;4168419;28;20045;-71
2022/12/19 08:05:48;;;;;;;22.10;6.22;;;10.50;99.90;;;9.63;100.00;101171.38;4165116;28;20022;-72
2022/12/19 08:07:52;;;;;;;21.58;5.75;;;10.50;99.90;;;9.60;100.00;101170.81;4167017;28;20033;-72
2022/12/19 08:09:53;;;;;;;16.02;6.40;;;10.50;99.90;;;9.62;100.00;101166.22;4167689;28;20025;-71
2022/12/19 08:11:54;;;;;;;20.77;5.80;;;10.50;99.90;;;9.61;100.00;101167.22;4167923;28;20067;-71
2022/12/19 08:13:58;;;;;;;22.73;7.30;;;10.50;99.90;;;9.65;100.00;101179.94;4166528;28;20060;-72
2022/12/19 08:16:00;;;;;;;26.50;7.07;;;10.50;99.90;;;9.66;100.00;101181.63;4167924;28;20041;-71
2022/12/19 08:18:02;;;;;;;22.33;6.95;;;10.60;99.90;;;9.68;100.00;101181.47;4166237;28;20038;-71
2022/12/19 08:20:05;;;;;;;18.38;5.60;;;10.60;99.90;;;9.72;100.00;101180.22;4166365;28;20053;-72
2022/12/19 08:22:06;;;;;;;19.37;7.13;;;10.60;99.90;;;9.73;100.00;101187.16;4168014;28;20030;-72
2022/12/19 08:24:07;;;;;;;21.88;8.25;;;10.60;99.90;;;9.80;100.00;101193.53;4167799;28;20280;-72
2022/12/19 08:26:15;;;;;;;20.77;7.00;;;10.60;99.90;;;9.79;100.00;101182.19;4168537;28;20053;-72
2022/12/19 08:28:16;;;;;;;20.15;7.93;;;10.60;99.90;;;9.82;100.00;101188.97;4168507;28;20053;-72
2022/12/19 08:30:17;;;;;;;23.58;7.72;;;10.70;99.90;;;9.80;100.00;101183.00;4168688;28;20030;-72
2022/12/19 08:32:19;;;;;;;31.02;7.15;;;10.70;99.90;;;9.79;100.00;101182.19;4168328;28;20032;-72
2022/12/19 08:34:20;;;;;;;20.88;6.72;;;10.70;99.90;;;9.83;100.00;101199.34;4169557;28;20106;-72
2022/12/19 08:36:21;;;;;;;17.17;6.32;;;10.70;99.90;;;9.83;100.00;101198.50;4171382;28;20029;-73
2022/12/19 08:38:22;;;;;;;21.50;7.28;;;10.70;99.90;;;9.85;100.00;101196.59;4171386;28;20104;-72